createdAt,value
2023-03-19T00:00:15.242Z,9.20
2023-03-19T00:00:45.602Z,9.20
2023-03-19T00:01:16.925Z,9.20
2023-03-19T00:01:48.254Z,9.20
2023-03-19T00:02:19.037Z,9.20
2023-03-19T00:02:50.127Z,9.20
2023-03-19T00:03:21.483Z,9.20
2023-03-19T00:03:52.469Z,9.10
2023-03-19T00:04:23.394Z,9.10
2023-03-19T00:04:53.722Z,9.10
2023-03-19T00:05:24.795Z,9.10
2023-03-19T00:05:55.247Z,9.10
2023-03-19T00:06:26.584Z,9.20
2023-03-19T00:06:58.343Z,9.20
2023-03-19T00:07:29.488Z,9.20
2023-03-19T00:08:00.502Z,9.20
2023-03-19T00:08:48.614Z,9.20
2023-03-19T00:09:01.571Z,9.30
2023-03-19T00:09:32.551Z,9.30
2023-03-19T00:10:03.572Z,9.30
2023-03-19T00:10:34.357Z,9.30
2023-03-19T00:11:05.603Z,9.30
2023-03-19T00:11:37.462Z,9.30
2023-03-19T00:12:08.300Z,9.30
2023-03-19T00:12:39.142Z,9.30
2023-03-19T00:13:09.951Z,9.20
2023-03-19T00:13:40.771Z,9.20
2023-03-19T00:14:11.546Z,9.20
2023-03-19T00:14:42.695Z,9.20
2023-03-19T00:15:14.021Z,9.20
2023-03-19T00:15:44.543Z,9.20
2023-03-19T00:16:15.505Z,9.20
2023-03-19T00:16:46.872Z,9.20
2023-03-19T00:17:34.975Z,9.20
2023-03-19T00:17:49.671Z,9.30
2023-03-19T00:18:20.179Z,9.30
2023-03-19T00:18:50.833Z,9.30
2023-03-19T00:19:21.567Z,9.40
2023-03-19T00:19:52.364Z,9.40
2023-03-19T00:20:23.540Z,9.40
2023-03-19T00:20:54.511Z,9.40
2023-03-19T00:21:26.024Z,9.40
2023-03-19T00:21:56.474Z,9.40
2023-03-19T00:22:27.935Z,9.40
2023-03-19T00:22:59.201Z,9.40
2023-03-19T00:23:29.951Z,9.40
2023-03-19T00:24:01.129Z,9.40
2023-03-19T00:24:31.435Z,9.40
2023-03-19T00:25:03.086Z,9.40
2023-03-19T00:25:33.935Z,9.30
2023-03-19T00:26:04.525Z,9.30
2023-03-19T00:26:53.148Z,9.30
2023-03-19T00:27:06.717Z,9.30
2023-03-19T00:27:37.688Z,9.30
2023-03-19T00:28:09.459Z,9.40
2023-03-19T00:28:40.078Z,9.40
2023-03-19T00:29:11.158Z,9.50
2023-03-19T00:29:42.046Z,9.50
2023-03-19T00:30:14.155Z,9.50
2023-03-19T00:30:44.375Z,9.40
2023-03-19T00:31:14.389Z,9.40
2023-03-19T00:31:45.704Z,9.40
2023-03-19T00:32:18.720Z,9.40
2023-03-19T00:32:49.013Z,9.40
2023-03-19T00:33:19.950Z,9.40
2023-03-19T00:33:50.215Z,9.40
2023-03-19T00:34:20.999Z,9.40
2023-03-19T00:34:52.835Z,9.40
2023-03-19T00:35:40.947Z,9.30
2023-03-19T00:35:53.817Z,9.30
2023-03-19T00:36:24.692Z,9.30
2023-03-19T00:36:55.849Z,9.30
2023-03-19T00:37:26.982Z,9.30
2023-03-19T00:37:58.058Z,9.30
2023-03-19T00:38:29.601Z,9.30
2023-03-19T00:39:00.545Z,9.30
2023-03-19T00:39:30.832Z,9.30
2023-03-19T00:40:02.664Z,9.30
2023-03-19T00:40:33.239Z,9.30
2023-03-19T00:41:03.624Z,9.20
2023-03-19T00:41:34.676Z,9.20
2023-03-19T00:42:05.598Z,9.20
2023-03-19T00:42:36.936Z,9.20
2023-03-19T00:43:20.081Z,9.30
2023-03-19T00:43:39.592Z,9.30
2023-03-19T00:44:10.866Z,9.30
2023-03-19T00:44:41.621Z,9.30
2023-03-19T00:45:12.101Z,9.30
2023-03-19T00:45:42.810Z,9.30
2023-03-19T00:46:13.687Z,9.30
2023-03-19T00:46:44.731Z,9.30
2023-03-19T00:47:15.646Z,9.30
2023-03-19T00:47:46.677Z,9.30
2023-03-19T00:48:18.156Z,9.20
2023-03-19T00:48:49.533Z,9.20
2023-03-19T00:49:51.790Z,9.10
2023-03-19T00:50:22.477Z,9.10
2023-03-19T00:50:52.962Z,9.10
2023-03-19T00:51:23.689Z,9.10
2023-03-19T00:51:54.762Z,9.10
2023-03-19T00:52:26.590Z,9.00
2023-03-19T00:52:57.336Z,9.00
2023-03-19T00:53:44.793Z,9.00
2023-03-19T00:53:59.634Z,9.00
2023-03-19T00:54:30.707Z,9.00
2023-03-19T00:55:01.628Z,8.90
2023-03-19T00:55:32.719Z,8.90
2023-03-19T00:56:02.526Z,8.90
2023-03-19T00:56:33.741Z,8.80
2023-03-19T00:57:04.678Z,8.80
2023-03-19T00:57:35.803Z,8.80
2023-03-19T00:58:06.921Z,8.80
2023-03-19T00:58:37.951Z,8.80
2023-03-19T00:59:09.439Z,8.70
2023-03-19T00:59:40.720Z,8.70
2023-03-19T01:00:12.488Z,8.70
2023-03-19T01:00:41.756Z,8.70
2023-03-19T01:01:12.964Z,8.70
2023-03-19T01:01:43.714Z,8.70
2023-03-19T01:02:14.674Z,8.70
2023-03-19T01:02:45.693Z,8.60
2023-03-19T01:03:17.054Z,8.60
2023-03-19T01:03:47.828Z,8.60
2023-03-19T01:04:19.363Z,8.60
2023-03-19T01:04:50.361Z,8.60
2023-03-19T01:05:21.585Z,8.50
2023-03-19T01:05:51.696Z,8.50
2023-03-19T01:06:23.933Z,8.50
2023-03-19T01:06:53.904Z,8.50
2023-03-19T01:07:25.763Z,8.50
2023-03-19T01:07:56.633Z,8.50
2023-03-19T01:11:54.061Z,8.50
2023-03-19T01:17:23.093Z,8.60
2023-03-19T01:17:48.380Z,8.80
2023-03-19T01:35:53.371Z,8.80
2023-03-19T01:38:19.463Z,9.40
2023-03-19T01:38:39.517Z,9.30
2023-03-19T01:40:00.115Z,9.30
2023-03-19T01:40:30.672Z,9.40
2023-03-19T01:41:00.937Z,9.40
2023-03-19T01:41:47.220Z,9.40
2023-03-19T01:42:22.868Z,9.40
2023-03-19T01:43:36.147Z,9.50
2023-03-19T01:44:13.181Z,9.50
2023-03-19T01:44:42.392Z,9.50
2023-03-19T01:45:10.945Z,9.50
2023-03-19T01:45:51.389Z,9.50
2023-03-19T01:46:22.350Z,9.50
2023-03-19T01:47:00.496Z,9.50
2023-03-19T01:47:12.229Z,9.50
2023-03-19T01:47:43.049Z,9.50
2023-03-19T01:48:14.150Z,9.50
2023-03-19T01:48:45.441Z,9.50
2023-03-19T01:49:16.124Z,9.50
2023-03-19T01:49:47.298Z,9.50
2023-03-19T01:56:33.335Z,9.50
2023-03-19T01:57:05.518Z,9.40
2023-03-19T01:57:32.247Z,9.40
2023-03-19T01:58:04.104Z,9.40
2023-03-19T01:58:35.794Z,9.40
2023-03-19T01:59:06.924Z,9.50
2023-03-19T01:59:37.221Z,9.50
2023-03-19T02:00:32.331Z,9.50
2023-03-19T02:00:39.572Z,9.50
2023-03-19T02:01:09.301Z,9.50
2023-03-19T02:01:40.392Z,9.50
2023-03-19T02:02:12.155Z,9.50
2023-03-19T02:03:18.470Z,9.50
2023-03-19T02:03:36.710Z,9.40
2023-03-19T02:04:06.763Z,9.40
2023-03-19T02:04:38.178Z,9.30
2023-03-19T02:05:11.149Z,9.30
2023-03-19T02:05:40.690Z,9.30
2023-03-19T02:06:11.273Z,9.20
2023-03-19T02:06:43.848Z,9.20
2023-03-19T02:07:26.978Z,9.20
2023-03-19T02:07:45.841Z,9.20
2023-03-19T02:08:18.067Z,9.20
2023-03-19T02:08:46.543Z,9.20
2023-03-19T02:09:18.478Z,9.10
2023-03-19T02:09:49.890Z,9.10
2023-03-19T02:10:20.232Z,9.10
2023-03-19T02:10:50.357Z,9.10
2023-03-19T02:11:38.926Z,9.00
2023-03-19T02:11:51.544Z,9.00
2023-03-19T02:12:23.752Z,9.00
2023-03-19T02:12:54.148Z,9.00
2023-03-19T02:13:26.281Z,9.00
2023-03-19T02:13:57.048Z,9.00
2023-03-19T02:14:26.996Z,8.90
2023-03-19T02:14:57.842Z,8.90
2023-03-19T02:15:29.751Z,8.80
2023-03-19T02:16:02.433Z,8.80
2023-03-19T02:16:30.948Z,8.70
2023-03-19T02:17:01.924Z,8.60
2023-03-19T02:17:32.537Z,8.60
2023-03-19T02:18:04.257Z,8.60
2023-03-19T02:18:35.680Z,8.50
2023-03-19T02:19:06.650Z,8.50
2023-03-19T02:19:37.944Z,8.50
2023-03-19T02:20:08.170Z,8.40
2023-03-19T02:20:39.911Z,8.40
2023-03-19T02:21:09.315Z,8.30
2023-03-19T02:21:40.689Z,8.30
2023-03-19T02:22:12.667Z,8.30
2023-03-19T02:22:42.465Z,8.30
2023-03-19T02:23:14.599Z,8.30
2023-03-19T02:23:45.549Z,8.30
2023-03-19T02:24:17.826Z,8.30
2023-03-19T02:24:46.927Z,8.30
2023-03-19T02:25:19.088Z,8.20
2023-03-19T02:25:48.166Z,8.20
2023-03-19T02:26:20.113Z,8.20
2023-03-19T02:26:50.986Z,8.10
2023-03-19T02:27:21.967Z,8.10
2023-03-19T02:27:52.192Z,8.00
2023-03-19T02:28:24.573Z,8.00
2023-03-19T02:28:57.592Z,7.90
2023-03-19T02:29:28.630Z,7.90
2023-03-19T02:29:57.901Z,7.90
2023-03-19T02:30:32.888Z,7.90
2023-03-19T02:30:58.308Z,7.90
2023-03-19T02:31:29.831Z,7.90
2023-03-19T02:32:00.865Z,7.90
2023-03-19T02:32:32.876Z,7.90
2023-03-19T02:33:13.721Z,7.80
2023-03-19T02:33:36.418Z,7.80
2023-03-19T02:34:06.419Z,7.80
2023-03-19T02:34:37.208Z,7.80
2023-03-19T02:35:14.094Z,7.70
2023-03-19T02:35:38.898Z,7.70
2023-03-19T02:36:09.475Z,7.60
2023-03-19T02:36:40.679Z,7.50
2023-03-19T02:37:19.539Z,7.50
2023-03-19T02:37:42.313Z,7.50
2023-03-19T02:38:13.036Z,7.40
2023-03-19T02:38:43.774Z,7.40
2023-03-19T02:39:14.891Z,7.30
2023-03-19T02:39:46.244Z,7.30
2023-03-19T02:40:16.680Z,7.30
2023-03-19T02:40:48.146Z,7.30
2023-03-19T02:41:19.036Z,7.30
2023-03-19T02:41:49.731Z,7.30
2023-03-19T02:42:22.058Z,7.30
2023-03-19T02:42:52.016Z,7.40
2023-03-19T02:43:23.653Z,7.40
2023-03-19T02:43:54.253Z,7.40
2023-03-19T02:44:25.594Z,7.40
2023-03-19T02:44:55.737Z,7.40
2023-03-19T02:45:26.723Z,7.40
2023-03-19T02:45:57.548Z,7.40
2023-03-19T02:46:29.160Z,7.40
2023-03-19T02:46:59.832Z,7.40
2023-03-19T02:47:30.899Z,7.30
2023-03-19T02:48:02.540Z,7.30
2023-03-19T02:48:33.453Z,7.30
2023-03-19T02:49:04.699Z,7.20
2023-03-19T02:49:34.904Z,7.20
2023-03-19T02:50:05.950Z,7.20
2023-03-19T02:50:38.085Z,7.10
2023-03-19T02:51:07.616Z,7.10
2023-03-19T02:51:38.317Z,7.00
2023-03-19T02:52:10.386Z,7.00
2023-03-19T02:52:41.079Z,7.00
2023-03-19T02:53:13.139Z,7.00
2023-03-19T02:53:42.778Z,7.00
2023-03-19T02:54:14.446Z,7.00
2023-03-19T02:54:44.691Z,7.00
2023-03-19T02:55:47.670Z,7.00
2023-03-19T02:56:17.600Z,7.00
2023-03-19T02:56:48.662Z,7.00
2023-03-19T02:57:36.991Z,7.00
2023-03-19T02:57:51.250Z,7.00
2023-03-19T02:58:21.765Z,7.00
2023-03-19T02:58:54.231Z,7.00
2023-03-19T02:59:24.201Z,7.00
2023-03-19T02:59:56.761Z,7.00
2023-03-19T03:00:25.471Z,7.00
2023-03-19T03:00:59.317Z,7.00
2023-03-19T03:01:27.012Z,7.00
2023-03-19T03:01:58.712Z,7.00
2023-03-19T03:02:30.860Z,7.00
2023-03-19T03:03:04.537Z,7.00
2023-03-19T03:04:12.315Z,7.00
2023-03-19T03:05:03.377Z,7.00
2023-03-19T03:06:06.857Z,7.00
2023-03-19T03:06:44.307Z,7.00
2023-03-19T03:07:08.553Z,7.00
2023-03-19T03:07:40.298Z,7.00
2023-03-19T03:08:13.246Z,7.00
2023-03-19T03:09:24.874Z,7.00
2023-03-19T03:09:44.134Z,7.00
2023-03-19T03:10:15.763Z,7.10
2023-03-19T03:10:45.648Z,7.20
2023-03-19T03:11:17.115Z,7.40
2023-03-19T03:12:19.180Z,7.50
2023-03-19T03:12:50.643Z,7.60
2023-03-19T03:13:21.234Z,7.60
2023-03-19T03:13:53.317Z,7.70
2023-03-19T03:14:24.405Z,7.70
2023-03-19T03:14:54.933Z,7.80
2023-03-19T03:15:26.604Z,7.80
2023-03-19T03:15:56.878Z,7.80
2023-03-19T03:16:26.644Z,7.90
2023-03-19T03:16:57.539Z,7.90
2023-03-19T03:18:06.114Z,7.90
2023-03-19T03:18:30.984Z,7.90
2023-03-19T03:19:02.525Z,7.90
2023-03-19T03:19:33.078Z,8.00
2023-03-19T03:20:04.794Z,8.00
2023-03-19T03:20:35.921Z,8.00
2023-03-19T03:21:06.230Z,8.00
2023-03-19T03:21:43.519Z,8.00
2023-03-19T03:22:40.736Z,8.00
2023-03-19T03:23:09.462Z,8.00
2023-03-19T03:23:41.241Z,7.90
2023-03-19T03:24:12.156Z,7.80
2023-03-19T03:24:43.298Z,7.80
2023-03-19T03:25:24.896Z,7.70
2023-03-19T03:25:45.591Z,7.60
2023-03-19T03:26:17.384Z,7.50
2023-03-19T03:26:49.040Z,7.40
2023-03-19T03:27:26.358Z,7.30
2023-03-19T03:27:51.766Z,7.30
2023-03-19T03:28:28.399Z,7.20
2023-03-19T03:28:50.643Z,7.20
2023-03-19T03:29:29.023Z,7.10
2023-03-19T03:29:56.742Z,7.10
2023-03-19T03:30:25.722Z,7.00
2023-03-19T03:30:56.769Z,7.00
2023-03-19T03:31:29.234Z,6.90
2023-03-19T03:31:57.775Z,6.90
2023-03-19T03:32:46.969Z,6.80
2023-03-19T03:33:00.226Z,6.80
2023-03-19T03:33:48.694Z,6.80
2023-03-19T03:34:02.611Z,6.80
2023-03-19T03:34:32.995Z,6.70
2023-03-19T03:35:05.267Z,6.70
2023-03-19T03:35:34.627Z,6.60
2023-03-19T03:36:05.279Z,6.60
2023-03-19T03:36:36.437Z,6.60
2023-03-19T03:37:07.963Z,6.60
2023-03-19T03:37:37.977Z,6.60
2023-03-19T03:38:09.669Z,6.60
2023-03-19T03:38:42.674Z,6.70
2023-03-19T03:39:11.099Z,6.70
2023-03-19T03:39:41.896Z,6.70
2023-03-19T03:40:44.282Z,6.70
2023-03-19T03:41:14.781Z,6.70
2023-03-19T03:41:46.056Z,6.70
2023-03-19T03:42:17.713Z,6.70
2023-03-19T03:42:48.493Z,6.70
2023-03-19T03:43:19.290Z,6.70
2023-03-19T03:43:49.664Z,6.70
2023-03-19T03:44:21.400Z,6.70
2023-03-19T03:44:51.701Z,6.70
2023-03-19T03:45:26.178Z,6.70
2023-03-19T03:45:53.831Z,6.70
2023-03-19T03:46:25.208Z,6.70
2023-03-19T03:46:55.940Z,6.70
2023-03-19T03:47:27.789Z,6.70
2023-03-19T03:47:58.212Z,6.70
2023-03-19T03:48:29.688Z,6.70
2023-03-19T03:49:01.164Z,6.70
2023-03-19T03:49:30.618Z,6.70
2023-03-19T03:50:03.427Z,6.70
2023-03-19T03:50:33.241Z,6.80
2023-03-19T03:51:03.699Z,6.80
2023-03-19T03:51:35.609Z,6.80
2023-03-19T03:52:05.939Z,6.70
2023-03-19T03:52:48.974Z,6.70
2023-03-19T03:53:09.037Z,6.70
2023-03-19T03:53:39.321Z,6.70
2023-03-19T03:54:13.289Z,6.70
2023-03-19T03:54:40.942Z,6.70
2023-03-19T03:55:11.829Z,6.70
2023-03-19T03:55:42.443Z,6.70
2023-03-19T03:56:13.939Z,6.70
2023-03-19T03:56:44.776Z,6.70
2023-03-19T03:57:16.411Z,6.70
2023-03-19T03:57:47.160Z,6.70
2023-03-19T03:58:18.271Z,6.70
2023-03-19T03:58:49.690Z,6.70
2023-03-19T03:59:19.602Z,6.70
2023-03-19T03:59:50.624Z,6.70
2023-03-19T04:00:30.015Z,6.70
2023-03-19T04:01:04.323Z,6.70
2023-03-19T04:01:24.916Z,6.70
2023-03-19T04:01:56.132Z,6.70
2023-03-19T04:02:25.996Z,6.70
2023-03-19T04:02:56.853Z,6.70
2023-03-19T04:03:28.169Z,6.70
2023-03-19T04:03:58.671Z,6.60
2023-03-19T04:04:29.984Z,6.60
2023-03-19T04:05:00.630Z,6.60
2023-03-19T04:05:31.747Z,6.60
2023-03-19T04:06:02.607Z,6.50
2023-03-19T04:06:33.504Z,6.50
2023-03-19T04:07:36.150Z,6.50
2023-03-19T04:08:06.765Z,6.50
2023-03-19T04:08:46.266Z,6.50
2023-03-19T04:09:09.036Z,6.50
2023-03-19T04:09:40.088Z,6.60
2023-03-19T04:10:12.595Z,6.60
2023-03-19T04:10:41.823Z,6.60
2023-03-19T04:11:30.627Z,6.60
2023-03-19T04:11:43.733Z,6.60
2023-03-19T04:12:14.851Z,6.60
2023-03-19T04:12:45.978Z,6.70
2023-03-19T04:13:16.960Z,6.70
2023-03-19T04:13:48.697Z,6.70
2023-03-19T04:14:19.537Z,6.80
2023-03-19T04:14:49.973Z,6.80
2023-03-19T04:15:37.319Z,6.80
2023-03-19T04:15:52.378Z,6.90
2023-03-19T04:16:22.327Z,7.00
2023-03-19T04:16:53.952Z,7.00
2023-03-19T04:17:24.603Z,7.00
2023-03-19T04:17:56.116Z,7.00
2023-03-19T04:18:26.639Z,7.00
2023-03-19T04:18:58.723Z,7.00
2023-03-19T04:19:29.256Z,7.00
2023-03-19T04:19:59.658Z,7.00
2023-03-19T04:20:31.525Z,7.00
2023-03-19T04:21:01.645Z,7.00
2023-03-19T04:21:32.616Z,7.00
2023-03-19T04:22:03.363Z,7.10
2023-03-19T04:22:34.622Z,7.10
2023-03-19T04:23:06.197Z,7.10
2023-03-19T04:23:36.608Z,7.10
2023-03-19T04:24:08.608Z,7.10
2023-03-19T04:24:39.209Z,7.10
2023-03-19T04:25:10.020Z,7.10
2023-03-19T04:25:40.823Z,7.10
2023-03-19T04:26:11.765Z,7.10
2023-03-19T04:26:42.785Z,7.10
2023-03-19T04:27:13.825Z,7.00
2023-03-19T04:27:44.655Z,7.00
2023-03-19T04:28:15.840Z,7.00
2023-03-19T04:28:46.494Z,7.00
2023-03-19T04:29:34.634Z,6.90
2023-03-19T04:29:49.812Z,6.90
2023-03-19T04:30:21.800Z,6.90
2023-03-19T04:30:51.124Z,6.80
2023-03-19T04:31:21.833Z,6.80
2023-03-19T04:31:52.644Z,6.70
2023-03-19T04:32:23.799Z,6.70
2023-03-19T04:32:54.380Z,6.70
2023-03-19T04:33:26.232Z,6.70
2023-03-19T04:33:56.983Z,6.70
2023-03-19T04:34:28.533Z,6.70
2023-03-19T04:34:59.440Z,6.70
2023-03-19T04:35:29.779Z,6.80
2023-03-19T04:36:00.682Z,6.80
2023-03-19T04:36:31.417Z,6.80
2023-03-19T04:37:02.469Z,6.80
2023-03-19T04:37:33.610Z,6.80
2023-03-19T04:38:04.799Z,6.80
2023-03-19T04:38:36.276Z,6.80
2023-03-19T04:39:06.950Z,6.80
2023-03-19T04:39:38.466Z,6.80
2023-03-19T04:40:09.813Z,6.80
2023-03-19T04:40:40.327Z,6.90
2023-03-19T04:41:10.705Z,6.90
2023-03-19T04:41:41.374Z,7.00
2023-03-19T04:42:12.672Z,7.10
2023-03-19T04:42:43.829Z,7.10
2023-03-19T04:43:14.745Z,7.20
2023-03-19T04:43:45.902Z,7.30
2023-03-19T04:44:16.604Z,7.30
2023-03-19T04:44:48.357Z,7.30
2023-03-19T04:45:20.734Z,7.40
2023-03-19T04:45:50.269Z,7.40
2023-03-19T04:57:44.463Z,7.60
2023-03-19T04:58:14.111Z,7.60
2023-03-19T04:58:55.658Z,7.60
2023-03-19T04:59:15.972Z,7.60
2023-03-19T04:59:46.976Z,7.60
2023-03-19T05:01:52.659Z,7.50
2023-03-19T05:02:21.379Z,7.50
2023-03-19T05:02:53.433Z,7.50
2023-03-19T05:03:23.788Z,7.50
2023-03-19T05:03:54.659Z,7.50
2023-03-19T05:06:08.018Z,7.60
2023-03-19T05:07:02.932Z,7.50
2023-03-19T05:07:31.792Z,7.50
2023-03-19T05:08:03.152Z,7.40
2023-03-19T05:08:33.835Z,7.40
2023-03-19T05:10:09.420Z,7.40
2023-03-19T05:10:41.027Z,7.40
2023-03-19T05:11:08.839Z,7.40
2023-03-19T05:11:39.993Z,7.40
2023-03-19T05:12:12.349Z,7.40
2023-03-19T05:12:59.448Z,7.40
2023-03-19T05:13:12.989Z,7.40
2023-03-19T05:13:44.469Z,7.40
2023-03-19T05:14:21.095Z,7.40
2023-03-19T05:14:46.654Z,7.40
2023-03-19T05:15:22.619Z,7.40
2023-03-19T05:15:54.754Z,7.40
2023-03-19T05:16:20.915Z,7.40
2023-03-19T05:16:51.787Z,7.40
2023-03-19T05:17:27.511Z,7.40
2023-03-19T05:17:57.022Z,7.40
2023-03-19T05:18:24.246Z,7.40
2023-03-19T05:18:58.844Z,7.50
2023-03-19T05:19:37.216Z,7.40
2023-03-19T05:19:56.479Z,7.40
2023-03-19T05:20:29.200Z,7.40
2023-03-19T05:20:57.710Z,7.50
2023-03-19T05:21:28.994Z,7.50
2023-03-19T05:22:00.461Z,7.60
2023-03-19T05:22:33.798Z,7.60
2023-03-19T05:23:02.388Z,7.70
2023-03-19T05:23:33.148Z,7.80
2023-03-19T05:24:04.178Z,7.80
2023-03-19T05:24:35.320Z,7.80
2023-03-19T05:25:06.157Z,7.80
2023-03-19T05:25:36.847Z,7.80
2023-03-19T05:26:16.923Z,7.80
2023-03-19T05:26:39.722Z,7.80
2023-03-19T05:27:11.983Z,7.80
2023-03-19T05:27:41.562Z,7.70
2023-03-19T05:28:14.296Z,7.70
2023-03-19T05:28:43.778Z,7.60
2023-03-19T05:29:14.580Z,7.60
2023-03-19T05:29:46.145Z,7.60
2023-03-19T05:30:18.160Z,7.60
2023-03-19T05:30:47.614Z,7.60
2023-03-19T05:31:20.962Z,7.60
2023-03-19T05:31:50.677Z,7.50
2023-03-19T05:32:20.482Z,7.50
2023-03-19T05:32:52.368Z,7.40
2023-03-19T05:33:40.336Z,7.40
2023-03-19T05:33:53.670Z,7.40
2023-03-19T05:34:24.394Z,7.40
2023-03-19T05:34:56.106Z,7.40
2023-03-19T05:35:28.652Z,7.40
2023-03-19T05:35:58.409Z,7.30
2023-03-19T05:36:28.178Z,7.30
2023-03-19T05:37:01.497Z,7.20
2023-03-19T05:37:32.241Z,7.20
2023-03-19T05:38:01.732Z,7.10
2023-03-19T05:38:32.014Z,7.10
2023-03-19T05:39:03.010Z,7.10
2023-03-19T05:39:34.861Z,7.10
2023-03-19T05:40:05.211Z,7.10
2023-03-19T05:40:36.489Z,7.10
2023-03-19T05:41:07.690Z,7.10
2023-03-19T05:41:38.864Z,7.10
2023-03-19T05:42:10.085Z,7.10
2023-03-19T05:42:40.595Z,7.10
2023-03-19T05:43:11.508Z,7.10
2023-03-19T05:43:42.345Z,7.10
2023-03-19T05:44:14.249Z,7.10
2023-03-19T05:44:44.234Z,7.20
2023-03-19T05:45:15.676Z,7.20
2023-03-19T05:45:45.869Z,7.20
2023-03-19T05:46:17.037Z,7.30
2023-03-19T05:46:48.373Z,7.30
2023-03-19T05:47:19.540Z,7.30
2023-03-19T05:47:50.415Z,7.30
2023-03-19T05:48:21.531Z,7.30
2023-03-19T05:48:52.268Z,7.40
2023-03-19T05:49:23.960Z,7.40
2023-03-19T05:49:54.962Z,7.40
2023-03-19T05:50:27.180Z,7.40
2023-03-19T05:50:56.093Z,7.40
2023-03-19T05:51:27.889Z,7.40
2023-03-19T05:51:58.702Z,7.40
2023-03-19T05:52:30.707Z,7.40
2023-03-19T05:53:01.305Z,7.40
2023-03-19T05:53:31.522Z,7.40
2023-03-19T05:54:02.660Z,7.30
2023-03-19T05:54:33.520Z,7.30
2023-03-19T05:55:05.207Z,7.20
2023-03-19T05:55:35.340Z,7.20
2023-03-19T05:56:06.337Z,7.20
2023-03-19T05:56:37.304Z,7.20
2023-03-19T05:57:08.661Z,7.20
2023-03-19T05:57:39.631Z,7.10
2023-03-19T05:58:10.209Z,7.10
2023-03-19T05:58:41.438Z,7.10
2023-03-19T05:59:11.980Z,7.10
2023-03-19T05:59:43.486Z,7.10
2023-03-19T06:00:16.091Z,7.10
2023-03-19T06:00:49.386Z,7.10
2023-03-19T06:01:16.074Z,7.10
2023-03-19T06:01:47.137Z,7.20
2023-03-19T06:02:18.634Z,7.20
2023-03-19T06:02:49.898Z,7.20
2023-03-19T06:03:21.415Z,7.20
2023-03-19T06:03:53.796Z,7.20
2023-03-19T06:04:23.489Z,7.20
2023-03-19T06:04:53.465Z,7.10
2023-03-19T06:05:25.191Z,7.10
2023-03-19T06:05:55.455Z,7.10
2023-03-19T06:06:27.494Z,7.10
2023-03-19T06:06:59.820Z,7.10
2023-03-19T06:07:29.221Z,7.10
2023-03-19T06:08:16.429Z,7.20
2023-03-19T06:08:31.026Z,7.20
2023-03-19T06:09:02.546Z,7.20
2023-03-19T06:09:33.886Z,7.20
2023-03-19T06:10:03.593Z,7.20
2023-03-19T06:10:35.171Z,7.30
2023-03-19T06:11:05.077Z,7.30
2023-03-19T06:11:36.613Z,7.40
2023-03-19T06:12:07.065Z,7.50
2023-03-19T06:12:38.721Z,7.50
2023-03-19T06:13:11.357Z,7.60
2023-03-19T06:13:41.884Z,7.70
2023-03-19T06:14:11.770Z,7.70
2023-03-19T06:14:42.988Z,7.80
2023-03-19T06:15:31.052Z,7.90
2023-03-19T06:15:45.703Z,7.90
2023-03-19T06:16:22.479Z,7.90
2023-03-19T06:17:04.169Z,7.90
2023-03-19T06:17:17.198Z,7.90
2023-03-19T06:17:49.506Z,7.90
2023-03-19T06:18:21.656Z,7.90
2023-03-19T06:18:51.451Z,7.90
2023-03-19T06:19:21.555Z,7.90
2023-03-19T06:20:09.759Z,7.90
2023-03-19T06:20:26.759Z,8.00
2023-03-19T06:20:54.280Z,8.00
2023-03-19T06:21:25.968Z,8.10
2023-03-19T06:22:27.009Z,8.10
2023-03-19T06:22:57.922Z,8.10
2023-03-19T06:23:30.482Z,8.10
2023-03-19T06:24:01.820Z,8.10
2023-03-19T06:24:32.576Z,8.10
2023-03-19T06:25:02.726Z,8.10
2023-03-19T06:25:34.175Z,8.10
2023-03-19T06:26:04.376Z,8.10
2023-03-19T06:26:35.173Z,8.20
2023-03-19T06:27:06.562Z,8.20
2023-03-19T06:27:37.138Z,8.20
2023-03-19T06:28:09.210Z,8.30
2023-03-19T06:28:39.493Z,8.30
2023-03-19T06:29:42.111Z,8.30
2023-03-19T06:30:30.143Z,8.30
2023-03-19T06:30:43.118Z,8.30
2023-03-19T06:31:14.255Z,8.40
2023-03-19T06:31:45.402Z,8.50
2023-03-19T06:32:16.112Z,8.50
2023-03-19T06:32:47.370Z,8.50
2023-03-19T06:33:18.105Z,8.60
2023-03-19T06:33:50.503Z,8.60
2023-03-19T06:34:21.588Z,8.60
2023-03-19T06:35:13.405Z,8.70
2023-03-19T06:35:22.959Z,8.70
2023-03-19T06:35:53.500Z,8.80
2023-03-19T06:36:24.064Z,8.80
2023-03-19T06:36:55.619Z,8.80
2023-03-19T06:37:34.581Z,8.90
2023-03-19T06:37:57.346Z,8.90
2023-03-19T06:38:28.110Z,8.90
2023-03-19T06:39:00.054Z,9.00
2023-03-19T06:39:31.214Z,9.10
2023-03-19T06:40:01.972Z,9.10
2023-03-19T06:41:03.301Z,9.20
2023-03-19T06:41:34.282Z,9.30
2023-03-19T06:42:05.768Z,9.30
2023-03-19T06:42:36.363Z,9.40
2023-03-19T06:43:07.209Z,9.40
2023-03-19T06:43:55.807Z,9.50
2023-03-19T06:44:10.015Z,9.50
2023-03-19T06:44:42.495Z,9.60
2023-03-19T06:45:13.035Z,9.60
2023-03-19T06:45:43.123Z,9.60
2023-03-19T06:46:14.257Z,9.70
2023-03-19T06:46:44.385Z,9.70
2023-03-19T06:47:15.172Z,9.70
2023-03-19T06:47:45.967Z,9.80
2023-03-19T06:48:48.275Z,9.80
2023-03-19T06:49:20.466Z,9.80
2023-03-19T06:49:51.612Z,9.80
2023-03-19T06:50:22.351Z,9.80
2023-03-19T06:50:52.389Z,9.80
2023-03-19T06:51:34.410Z,9.80
2023-03-19T06:51:54.229Z,9.80
2023-03-19T06:52:25.680Z,9.80
2023-03-19T06:52:56.309Z,9.80
2023-03-19T06:53:28.183Z,9.80
2023-03-19T06:53:59.190Z,9.80
2023-03-19T06:54:32.390Z,9.80
2023-03-19T06:55:01.882Z,9.80
2023-03-19T06:55:32.843Z,9.80
2023-03-19T06:56:02.488Z,9.80
2023-03-19T06:56:35.235Z,9.80
2023-03-19T06:57:07.193Z,9.80
2023-03-19T06:57:35.390Z,9.90
2023-03-19T06:58:06.231Z,9.90
2023-03-19T06:58:37.309Z,9.90
2023-03-19T06:59:08.258Z,9.90
2023-03-19T06:59:39.727Z,9.90
2023-03-19T07:06:00.398Z,9.90
2023-03-19T07:06:22.124Z,10.10
2023-03-19T07:06:53.204Z,10.10
2023-03-19T07:07:29.695Z,10.20
2023-03-19T07:08:09.378Z,10.20
2023-03-19T07:08:40.496Z,10.30
2023-03-19T07:09:11.971Z,10.30
2023-03-19T07:09:28.611Z,10.30
2023-03-19T07:10:12.721Z,10.30
2023-03-19T07:10:30.539Z,10.30
2023-03-19T07:11:01.179Z,10.30
2023-03-19T07:11:35.719Z,10.30
2023-03-19T07:12:04.543Z,10.30
2023-03-19T07:12:34.790Z,10.30
2023-03-19T07:13:05.993Z,10.40
2023-03-19T07:13:44.820Z,10.40
2023-03-19T07:14:07.250Z,10.50
2023-03-19T07:14:38.421Z,10.50
2023-03-19T07:15:10.632Z,10.50
2023-03-19T07:15:41.054Z,10.50
2023-03-19T07:16:20.288Z,10.50
2023-03-19T07:17:00.054Z,10.50
2023-03-19T07:17:14.178Z,10.60
2023-03-19T07:17:45.024Z,10.60
2023-03-19T07:18:16.231Z,10.60
2023-03-19T07:18:49.765Z,10.70
2023-03-19T07:19:17.352Z,10.70
2023-03-19T07:19:48.212Z,10.70
2023-03-19T07:20:20.992Z,10.80
2023-03-19T07:21:10.946Z,10.80
2023-03-19T07:21:22.162Z,10.80
2023-03-19T07:21:53.484Z,10.80
2023-03-19T07:22:23.681Z,10.90
2023-03-19T07:22:54.807Z,10.90
2023-03-19T07:23:26.890Z,10.90
2023-03-19T07:24:06.418Z,10.90
2023-03-19T07:24:27.958Z,10.90
2023-03-19T07:25:02.227Z,11.00
2023-03-19T07:25:30.378Z,11.00
2023-03-19T07:26:02.927Z,11.00
2023-03-19T07:26:32.863Z,10.90
2023-03-19T07:27:03.648Z,10.90
2023-03-19T07:27:33.873Z,10.90
2023-03-19T07:28:04.478Z,11.00
2023-03-19T07:28:35.511Z,11.00
2023-03-19T07:29:06.740Z,11.00
2023-03-19T07:29:37.392Z,11.00
2023-03-19T07:30:09.799Z,11.00
2023-03-19T07:30:40.660Z,11.00
2023-03-19T07:31:12.375Z,11.00
2023-03-19T07:32:13.368Z,11.00
2023-03-19T07:32:45.996Z,11.00
2023-03-19T07:33:14.641Z,11.00
2023-03-19T07:33:45.796Z,11.10
2023-03-19T07:34:16.841Z,11.10
2023-03-19T07:34:47.842Z,11.10
2023-03-19T07:35:18.881Z,11.10
2023-03-19T07:35:49.930Z,11.10
2023-03-19T07:36:21.331Z,11.10
2023-03-19T07:36:52.476Z,11.20
2023-03-19T07:37:22.893Z,11.20
2023-03-19T07:37:53.395Z,11.20
2023-03-19T07:38:25.142Z,11.20
2023-03-19T07:38:55.807Z,11.20
2023-03-19T07:39:26.565Z,11.20
2023-03-19T07:39:57.403Z,11.20
2023-03-19T07:40:28.720Z,11.20
2023-03-19T07:41:03.027Z,11.20
2023-03-19T07:41:32.169Z,11.30
2023-03-19T07:42:02.215Z,11.30
2023-03-19T07:42:55.442Z,11.30
2023-03-19T07:43:03.842Z,11.30
2023-03-19T07:43:52.644Z,11.30
2023-03-19T07:44:05.205Z,11.30
2023-03-19T07:44:37.115Z,11.30
2023-03-19T07:45:22.511Z,11.30
2023-03-19T07:45:38.853Z,11.30
2023-03-19T07:46:10.336Z,11.30
2023-03-19T07:46:41.540Z,11.30
2023-03-19T07:47:27.980Z,11.30
2023-03-19T07:47:42.898Z,11.30
2023-03-19T07:48:14.101Z,11.30
2023-03-19T07:48:48.360Z,11.30
2023-03-19T07:49:24.453Z,11.30
2023-03-19T07:49:46.654Z,11.30
2023-03-19T07:50:28.534Z,11.30
2023-03-19T07:50:49.064Z,11.30
2023-03-19T07:51:20.613Z,11.40
2023-03-19T07:51:52.794Z,11.40
2023-03-19T07:52:25.230Z,11.40
2023-03-19T07:52:56.124Z,11.40
2023-03-19T07:53:24.357Z,11.40
2023-03-19T07:53:56.704Z,11.40
2023-03-19T07:54:25.983Z,11.40
2023-03-19T07:54:56.594Z,11.40
2023-03-19T07:55:44.836Z,11.40
2023-03-19T07:55:58.781Z,11.40
2023-03-19T07:56:30.180Z,11.40
2023-03-19T07:57:01.896Z,11.50